Terminal Aerodrome Forecast
Issued by NWS Northern Indiana

Home | Current Version | Previous Version | Graphics & Text | Print | Product List | Glossary On
Versions: 1 2 3 4 5 6 7 8 9 10 11 12 13 14
000
FTUS43 KIWX 241700
TAFFWA
TAF
KFWA 241720Z 2418/2518 18012G19KT P6SM SCT060 BKN120
     FM250600 19013G23KT P6SM BKN080 WS020/20055KT
     FM251200 21024G33KT P6SM BKN040=

USA.gov is the U.S. government's official web portal to all federal, state and local government web resources and services.